Time;durP1;ratioP1;P1;durP2;ratioP2;P2;SDS_P1;SDS_P2;PMS_P1;PMS_P2;Temp;Humidity;BMP_temperature;BMP_pressure;BME280_temperature;BME280_humidity;BME280_pressure;Samples;Min_cycle;Max_cycle;Signal;HPM_P1;HPM_P2
2024/02/26 00:00:49;;;;;;;30.23;13.65;;;;;;;-141.50;100.00;63355.56;5007027;28;20100;-85
2024/02/26 00:03:16;;;;;;;27.25;12.68;;;;;;;-141.50;100.00;63355.56;5005513;28;20073;-84
2024/02/26 00:05:43;;;;;;;30.45;13.35;;;;;;;-141.50;100.00;63355.56;5006758;28;20133;-83
2024/02/26 00:08:11;;;;;;;30.20;13.13;;;;;;;-141.50;100.00;63355.56;5006402;28;20050;-85
2024/02/26 00:10:38;;;;;;;30.73;13.52;;;;;;;-141.50;100.00;63355.56;4989967;28;20046;-85
2024/02/26 00:13:05;;;;;;;32.80;13.93;;;;;;;-141.50;100.00;63355.56;5007721;28;20555;-83
2024/02/26 00:15:32;;;;;;;28.33;13.10;;;;;;;-141.50;100.00;63355.56;4988157;28;20047;-83
2024/02/26 00:17:58;;;;;;;29.88;13.43;;;;;;;-141.50;100.00;63355.56;5008617;28;20045;-85
2024/02/26 00:20:26;;;;;;;32.95;13.63;;;;;;;-141.50;100.00;63355.56;5023112;28;20050;-85
2024/02/26 00:22:52;;;;;;;32.70;13.30;;;;;;;-141.50;100.00;63355.56;5020981;28;20504;-85
2024/02/26 00:25:19;;;;;;;28.40;12.77;;;;;;;-141.50;100.00;63355.56;5001538;28;20100;-86
2024/02/26 00:27:46;;;;;;;32.00;13.32;;;;;;;-141.50;100.00;63355.56;4998188;28;20127;-85
2024/02/26 00:30:13;;;;;;;27.45;12.63;;;;;;;-141.50;100.00;63355.56;5000109;28;20077;-84
2024/02/26 00:32:40;;;;;;;28.58;12.43;;;;;;;-141.50;100.00;63355.56;4997024;28;20053;-85
2024/02/26 00:35:07;;;;;;;34.00;13.52;;;;;;;-141.50;100.00;63355.56;5002921;28;20076;-85
2024/02/26 00:37:33;;;;;;;35.40;13.48;;;;;;;-141.50;100.00;63355.56;4991301;28;20052;-86
2024/02/26 00:40:00;;;;;;;32.58;13.70;;;;;;;-141.50;100.00;63355.56;5009336;28;20053;-85
2024/02/26 00:42:27;;;;;;;32.88;13.57;;;;;;;-141.50;100.00;63355.56;4991907;28;20042;-85
2024/02/26 00:44:54;;;;;;;30.88;13.00;;;;;;;-141.50;100.00;63355.56;5008826;28;20042;-85
2024/02/26 00:47:21;;;;;;;30.30;12.85;;;;;;;-141.50;100.00;63355.56;5007615;28;20053;-84
2024/02/26 00:49:48;;;;;;;31.10;13.40;;;;;;;-141.50;100.00;63355.56;4991413;28;20061;-83
2024/02/26 00:52:14;;;;;;;31.90;13.73;;;;;;;-141.50;100.00;63355.56;5013846;28;20049;-86
2024/02/26 00:54:41;;;;;;;32.50;12.68;;;;;;;-141.50;100.00;63355.56;4990521;28;20100;-85
2024/02/26 00:57:08;;;;;;;28.02;12.32;;;;;;;-141.50;100.00;63355.56;5007252;28;20045;-85
2024/02/26 00:59:34;;;;;;;30.27;12.55;;;;;;;-141.50;100.00;63355.56;5008592;28;20518;-84
2024/02/26 01:02:02;;;;;;;30.02;12.32;;;;;;;-141.50;100.00;63355.56;5010793;28;20049;-85
2024/02/26 01:04:28;;;;;;;27.95;13.23;;;;;;;-141.50;100.00;63355.56;5009124;28;20050;-84
2024/02/26 01:06:55;;;;;;;27.50;12.48;;;;;;;-141.50;100.00;63355.56;5021342;28;20046;-84
2024/02/26 01:09:22;;;;;;;29.00;12.35;;;;;;;-141.50;100.00;63355.56;5008306;28;20054;-85
2024/02/26 01:11:49;;;;;;;27.73;12.35;;;;;;;-141.50;100.00;63355.56;5000494;28;20084;-84
2024/02/26 01:14:16;;;;;;;30.30;12.88;;;;;;;-141.50;100.00;63355.56;5006770;28;20459;-84
2024/02/26 01:16:43;;;;;;;28.85;12.90;;;;;;;-141.50;100.00;63355.56;4989485;28;20050;-85
2024/02/26 01:19:09;;;;;;;32.65;13.32;;;;;;;-141.50;100.00;63355.56;5001043;28;20128;-85
2024/02/26 01:21:36;;;;;;;28.40;12.10;;;;;;;-141.50;100.00;63355.56;5007935;28;20062;-84
2024/02/26 01:24:03;;;;;;;33.22;13.18;;;;;;;-141.50;100.00;63355.56;4992356;28;20046;-85
2024/02/26 01:26:30;;;;;;;27.58;12.32;;;;;;;-141.50;100.00;63355.56;5006295;28;20077;-84
2024/02/26 01:28:57;;;;;;;33.22;11.90;;;;;;;-141.50;100.00;63355.56;5009935;28;20130;-84
2024/02/26 01:31:24;;;;;;;26.90;12.43;;;;;;;-141.50;100.00;63355.56;5014242;28;20062;-84
2024/02/26 01:33:51;;;;;;;28.40;12.40;;;;;;;-141.50;100.00;63355.56;4996773;28;20393;-85
2024/02/26 01:36:18;;;;;;;29.35;12.55;;;;;;;-141.50;100.00;63355.56;5012008;28;20155;-85
2024/02/26 01:38:44;;;;;;;25.98;11.30;;;;;;;-141.50;100.00;63355.56;4994714;28;20054;-84
2024/02/26 01:41:14;;;;;;;27.55;11.93;;;;;;;-141.50;100.00;63355.56;4993341;28;20054;-86
2024/02/26 01:43:40;;;;;;;29.35;11.88;;;;;;;-141.50;100.00;63355.56;5011668;28;20073;-85
2024/02/26 01:46:13;;;;;;;28.40;12.20;;;;;;;-141.50;100.00;63355.56;4993191;28;20494;-86
2024/02/26 01:48:42;;;;;;;29.67;12.35;;;;;;;-141.50;100.00;63355.56;5011151;28;20053;-85
2024/02/26 01:51:12;;;;;;;27.05;11.68;;;;;;;-141.50;100.00;63355.56;4996108;28;20103;-85
2024/02/26 01:53:39;;;;;;;26.55;11.38;;;;;;;-141.50;100.00;63355.56;5009413;28;20069;-85
2024/02/26 01:56:07;;;;;;;24.30;10.93;;;;;;;-141.50;100.00;63355.56;5009608;28;20058;-85
2024/02/26 01:58:36;;;;;;;25.92;11.65;;;;;;;-141.50;100.00;63355.56;4989982;28;20058;-84
2024/02/26 02:01:03;;;;;;;27.60;11.48;;;;;;;-141.50;100.00;63355.56;5009785;28;20117;-84
2024/02/26 02:03:30;;;;;;;28.20;10.75;;;;;;;-141.50;100.00;63355.56;5008428;28;20097;-84
2024/02/26 02:05:57;;;;;;;28.13;11.70;;;;;;;-141.50;100.00;63355.56;5012273;28;20096;-83
2024/02/26 02:08:24;;;;;;;29.33;11.48;;;;;;;-141.50;100.00;63355.56;5014427;28;20061;-84
2024/02/26 02:10:51;;;;;;;27.42;11.18;;;;;;;-141.50;100.00;63355.56;5013646;28;20069;-85
2024/02/26 02:13:18;;;;;;;26.77;11.35;;;;;;;-141.50;100.00;63355.56;5011267;28;20062;-84
2024/02/26 02:15:45;;;;;;;28.35;11.43;;;;;;;-141.50;100.00;63355.56;4993932;28;20061;-86
2024/02/26 02:18:12;;;;;;;27.23;11.35;;;;;;;-141.50;100.00;63355.56;4992966;28;20054;-86
2024/02/26 02:20:38;;;;;;;25.33;10.30;;;;;;;-141.50;100.00;63355.56;4991465;28;20069;-84
2024/02/26 02:23:05;;;;;;;29.15;11.68;;;;;;;-141.50;100.00;63355.56;5008809;28;20058;-83
2024/02/26 02:25:32;;;;;;;26.75;11.23;;;;;;;-141.50;100.00;63355.56;4990939;28;20054;-84
2024/02/26 02:27:59;;;;;;;27.48;10.60;;;;;;;-141.50;100.00;63355.56;4976159;28;20060;-84
2024/02/26 02:30:29;;;;;;;26.75;11.18;;;;;;;-141.50;100.00;63355.56;4989758;28;20060;-83
2024/02/26 02:32:58;;;;;;;24.65;10.82;;;;;;;-141.50;100.00;63355.56;5002031;28;20049;-83
2024/02/26 02:35:25;;;;;;;27.02;10.80;;;;;;;-141.50;100.00;63355.56;5008708;28;22855;-84
2024/02/26 02:37:52;;;;;;;29.60;11.80;;;;;;;-141.50;100.00;63355.56;5009032;28;20053;-85
2024/02/26 02:40:19;;;;;;;26.17;10.05;;;;;;;-141.50;100.00;63355.56;4990705;28;20065;-86
2024/02/26 02:42:46;;;;;;;23.13;10.57;;;;;;;-141.50;100.00;63355.56;4990449;28;20049;-85
2024/02/26 02:45:13;;;;;;;28.08;10.88;;;;;;;-141.50;100.00;63355.56;5008309;28;20112;-85
2024/02/26 02:47:40;;;;;;;27.40;10.82;;;;;;;-141.50;100.00;63355.56;5001163;28;20061;-85
2024/02/26 02:50:07;;;;;;;29.35;11.05;;;;;;;-141.50;100.00;63355.56;4991005;28;20563;-85
2024/02/26 02:52:34;;;;;;;30.00;10.88;;;;;;;-141.50;100.00;63355.56;5010025;28;20049;-85
2024/02/26 02:55:01;;;;;;;22.33;10.27;;;;;;;-141.50;100.00;63355.56;4993768;28;20077;-84
2024/02/26 02:57:30;;;;;;;25.67;10.93;;;;;;;-141.50;100.00;63355.56;4989967;28;20069;-83
2024/02/26 02:59:56;;;;;;;24.48;10.30;;;;;;;-141.50;100.00;63355.56;4976872;28;20058;-83
2024/02/26 03:02:24;;;;;;;28.60;10.65;;;;;;;-141.50;100.00;63355.56;4990620;28;20515;-84
2024/02/26 03:04:51;;;;;;;25.02;10.55;;;;;;;-141.50;100.00;63355.56;4991212;28;20058;-85
2024/02/26 03:07:18;;;;;;;23.48;10.18;;;;;;;-141.50;100.00;63355.56;5008677;28;20054;-83
2024/02/26 03:09:45;;;;;;;24.35;10.35;;;;;;;-141.50;100.00;63355.56;5009444;28;20404;-83
2024/02/26 03:12:12;;;;;;;21.15;9.70;;;;;;;-141.50;100.00;63355.56;5008264;28;20058;-85
2024/02/26 03:14:39;;;;;;;25.38;10.38;;;;;;;-141.50;100.00;63355.56;5006700;28;20070;-84
2024/02/26 03:17:06;;;;;;;23.55;10.40;;;;;;;-141.50;100.00;63355.56;4994542;28;20076;-84
2024/02/26 03:19:33;;;;;;;27.20;10.43;;;;;;;-141.50;100.00;63355.56;4990688;28;20065;-85
2024/02/26 03:22:00;;;;;;;27.13;10.98;;;;;;;-141.50;100.00;63355.56;5007987;28;20057;-84
2024/02/26 03:24:27;;;;;;;26.35;10.65;;;;;;;-141.50;100.00;63355.56;4998135;28;20475;-84
2024/02/26 03:26:54;;;;;;;25.60;10.05;;;;;;;-141.50;100.00;63355.56;5012295;28;20070;-84
2024/02/26 03:29:21;;;;;;;25.20;10.50;;;;;;;-141.50;100.00;63355.56;5007783;28;20161;-85
2024/02/26 03:31:47;;;;;;;24.83;9.90;;;;;;;-141.50;100.00;63355.56;5011564;28;20062;-85
2024/02/26 03:34:14;;;;;;;28.17;10.65;;;;;;;-141.50;100.00;63355.56;5009038;28;20435;-85
2024/02/26 03:36:42;;;;;;;23.48;10.27;;;;;;;-141.50;100.00;63355.56;4991839;28;20092;-85
2024/02/26 03:39:09;;;;;;;24.83;9.98;;;;;;;-141.50;100.00;63355.56;5010415;28;20049;-86
2024/02/26 03:41:36;;;;;;;25.67;10.48;;;;;;;-141.50;100.00;63355.56;4996551;28;20056;-85
2024/02/26 03:44:03;;;;;;;24.17;10.18;;;;;;;-141.50;100.00;63355.56;4995382;28;20522;-85
2024/02/26 03:46:30;;;;;;;24.23;9.88;;;;;;;-141.50;100.00;63355.56;5009433;28;20057;-86
2024/02/26 03:48:56;;;;;;;22.38;9.48;;;;;;;-141.50;100.00;63355.56;4998876;28;20108;-86
2024/02/26 03:51:23;;;;;;;18.70;8.85;;;;;;;-141.50;100.00;63355.56;4993959;28;20057;-86
2024/02/26 03:53:50;;;;;;;23.25;9.70;;;;;;;-141.50;100.00;63355.56;4985920;28;20062;-85
2024/02/26 03:56:17;;;;;;;25.27;9.65;;;;;;;-141.50;100.00;63355.56;5009294;28;20065;-84
2024/02/26 03:58:44;;;;;;;22.48;9.77;;;;;;;-141.50;100.00;63355.56;4991286;28;20058;-85
2024/02/26 04:01:11;;;;;;;22.80;9.95;;;;;;;-141.50;100.00;63355.56;5008235;28;20062;-84
2024/02/26 04:03:38;;;;;;;23.58;9.77;;;;;;;-141.50;100.00;63355.56;5006563;28;20042;-84
2024/02/26 04:06:08;;;;;;;25.25;10.38;;;;;;;-141.50;100.00;63355.56;5007603;28;20411;-84
2024/02/26 04:08:35;;;;;;;24.55;10.13;;;;;;;-141.50;100.00;63355.56;4971399;28;20070;-84
2024/02/26 04:11:02;;;;;;;23.17;9.35;;;;;;;-141.50;100.00;63355.56;5008014;28;20062;-85
2024/02/26 04:13:29;;;;;;;24.00;10.30;;;;;;;-141.50;100.00;63355.56;4990189;28;20050;-84
2024/02/26 04:15:57;;;;;;;20.35;9.38;;;;;;;-141.50;100.00;63355.56;4980997;28;20058;-85
2024/02/26 04:18:24;;;;;;;26.27;10.82;;;;;;;-141.50;100.00;63355.56;5004266;28;20479;-85
2024/02/26 04:20:51;;;;;;;26.35;10.40;;;;;;;-141.50;100.00;63355.56;5000740;28;20050;-85
2024/02/26 04:23:18;;;;;;;23.48;10.10;;;;;;;-141.50;100.00;63355.56;4998608;28;20058;-84
2024/02/26 04:25:45;;;;;;;28.00;10.77;;;;;;;-141.50;100.00;63355.56;5007661;28;22177;-86
2024/02/26 04:28:12;;;;;;;25.35;10.43;;;;;;;-141.50;100.00;63355.56;4989695;28;20058;-86
2024/02/26 04:30:39;;;;;;;25.02;9.82;;;;;;;-141.50;100.00;63355.56;4989851;28;20057;-87
2024/02/26 04:33:05;;;;;;;24.63;10.20;;;;;;;-141.50;100.00;63355.56;5005869;28;20631;-85
2024/02/26 04:35:34;;;;;;;27.08;10.85;;;;;;;-141.50;100.00;63355.56;5006085;28;20041;-87
2024/02/26 04:38:01;;;;;;;28.25;10.65;;;;;;;-141.50;100.00;63355.56;5008317;28;20045;-85
2024/02/26 04:40:28;;;;;;;35.05;13.13;;;;;;;-141.50;100.00;63355.56;4989334;28;20115;-86
2024/02/26 04:42:55;;;;;;;33.63;12.52;;;;;;;-141.50;100.00;63355.56;4994354;28;20050;-86
2024/02/26 04:45:21;;;;;;;38.95;14.07;;;;;;;-141.50;100.00;63355.56;5013146;28;20054;-83
2024/02/26 04:47:48;;;;;;;39.05;13.60;;;;;;;-141.50;100.00;63355.56;4993375;28;20085;-83
2024/02/26 04:50:15;;;;;;;34.88;13.05;;;;;;;-141.50;100.00;63355.56;5000121;28;20085;-83
2024/02/26 04:52:42;;;;;;;35.38;13.48;;;;;;;-141.50;100.00;63355.56;4988544;28;20052;-86
2024/02/26 04:55:09;;;;;;;31.17;11.80;;;;;;;-141.50;100.00;63355.56;4989462;28;20116;-86
2024/02/26 04:57:35;;;;;;;29.05;11.40;;;;;;;-141.50;100.00;63355.56;4996180;28;20818;-86
2024/02/26 05:00:04;;;;;;;29.33;10.95;;;;;;;-141.50;100.00;63355.56;5003217;28;20054;-85
2024/02/26 05:02:33;;;;;;;27.67;11.32;;;;;;;-141.50;100.00;63355.56;4988724;28;20489;-85
2024/02/26 05:05:00;;;;;;;29.35;11.02;;;;;;;-141.50;100.00;63355.56;4970678;28;20065;-84
2024/02/26 05:07:26;;;;;;;27.08;11.40;;;;;;;-141.50;100.00;63355.56;4994506;28;20125;-86
2024/02/26 05:09:53;;;;;;;27.52;11.25;;;;;;;-141.50;100.00;63355.56;5001928;28;20053;-86
2024/02/26 05:12:20;;;;;;;29.58;11.60;;;;;;;-141.50;100.00;63355.56;5012521;28;20069;-86
2024/02/26 05:14:47;;;;;;;27.90;10.18;;;;;;;-141.50;100.00;63355.56;4995123;28;20116;-86
2024/02/26 05:17:14;;;;;;;28.92;11.98;;;;;;;-141.50;100.00;63355.56;4995372;28;20497;-87
2024/02/26 05:19:40;;;;;;;28.15;10.63;;;;;;;-141.50;100.00;63355.56;4978507;28;20050;-86
2024/02/26 05:22:07;;;;;;;31.05;11.68;;;;;;;-141.50;100.00;63355.56;4994682;28;20065;-86
2024/02/26 05:24:37;;;;;;;36.67;11.30;;;;;;;-141.50;100.00;63355.56;5011846;28;20041;-86
2024/02/26 05:27:04;;;;;;;27.83;11.27;;;;;;;-141.50;100.00;63355.56;5014094;28;20061;-85
2024/02/26 05:29:30;;;;;;;27.40;11.32;;;;;;;-141.50;100.00;63355.56;5015341;28;20053;-86
2024/02/26 05:31:57;;;;;;;33.80;11.25;;;;;;;-141.50;100.00;63355.56;5013311;28;20054;-86
2024/02/26 05:34:24;;;;;;;27.70;11.65;;;;;;;-141.50;100.00;63355.56;4995687;28;20058;-84
2024/02/26 05:36:51;;;;;;;33.55;12.55;;;;;;;-141.50;100.00;63355.56;4996978;28;20050;-85
2024/02/26 05:39:19;;;;;;;30.42;11.23;;;;;;;-141.50;100.00;63355.56;4996612;28;20629;-86
2024/02/26 05:41:47;;;;;;;26.08;10.55;;;;;;;-141.50;100.00;63355.56;5003339;28;20049;-85
2024/02/26 05:44:14;;;;;;;27.88;11.48;;;;;;;-141.50;100.00;63355.56;4997262;28;20256;-84
2024/02/26 05:46:42;;;;;;;26.45;10.93;;;;;;;-141.50;100.00;63355.56;5015067;28;20046;-84
2024/02/26 05:49:09;;;;;;;35.53;12.45;;;;;;;-141.50;100.00;63355.56;5018771;28;20058;-84
2024/02/26 05:51:36;;;;;;;26.42;11.45;;;;;;;-141.50;100.00;63355.56;4996417;28;20054;-85
2024/02/26 05:54:03;;;;;;;26.48;11.45;;;;;;;-141.50;100.00;63355.56;5011265;28;20420;-85
2024/02/26 05:56:30;;;;;;;25.45;11.15;;;;;;;-141.50;100.00;63355.56;5015273;28;20061;-80
2024/02/26 05:59:19;;;;;;;;;;;;;;;;;;;;;
2024/02/26 06:02:01;;;;;;;30.33;11.70;;;;;;;-141.50;100.00;63355.56;4992957;28;20048;-81
2024/02/26 06:04:28;;;;;;;28.25;11.32;;;;;;;-141.50;100.00;63355.56;5013688;28;20073;-82
2024/02/26 06:06:55;;;;;;;29.63;11.98;;;;;;;-141.50;100.00;63355.56;5023445;28;20669;-82
2024/02/26 06:09:22;;;;;;;27.33;11.13;;;;;;;-141.50;100.00;63355.56;4947004;28;20084;-85
2024/02/26 06:11:49;;;;;;;32.67;12.77;;;;;;;-141.50;100.00;63355.56;5016790;28;20093;-80
2024/02/26 06:14:18;;;;;;;31.23;12.02;;;;;;;-141.50;100.00;63355.56;5015967;28;20049;-83
2024/02/26 06:16:45;;;;;;;29.65;11.60;;;;;;;-141.50;100.00;63355.56;4996997;28;20058;-83
2024/02/26 06:19:12;;;;;;;28.83;11.77;;;;;;;-141.50;100.00;63355.56;4996764;28;20057;-83
2024/02/26 06:22:18;;;;;;;23.45;11.05;;;;;;;-141.50;100.00;63355.56;4949168;28;20065;-84
2024/02/26 06:25:52;;;;;;;26.35;11.30;;;;;;;-141.50;100.00;63355.56;4931641;28;20165;-82
2024/02/26 06:28:41;;;;;;;25.75;10.52;;;;;;;-141.50;100.00;63355.56;4949229;28;20054;-83
2024/02/26 06:31:29;;;;;;;26.58;11.35;;;;;;;-141.50;100.00;63355.56;4959953;28;20061;-83
2024/02/26 06:34:42;;;;;;;37.42;12.93;;;;;;;-141.50;100.00;63355.56;4913158;28;20407;-84
2024/02/26 06:38:18;;;;;;;26.70;12.05;;;;;;;-141.50;100.00;63355.56;4942324;28;20053;-81
2024/02/26 06:41:59;;;;;;;;;;;;;;;;;;;;;
2024/02/26 06:45:13;;;;;;;32.42;11.57;;;;;;;-141.50;100.00;63355.56;4910180;28;20066;-83
2024/02/26 06:48:40;;;;;;;25.88;10.93;;;;;;;-141.50;100.00;63355.56;4864715;29;20071;-84
2024/02/26 06:56:10;;;;;;;29.23;11.02;;;;;;;-141.50;100.00;63355.56;4772250;29;20122;-83
2024/02/26 06:59:27;;;;;;;;;;;;;;;;;;;;;
2024/02/26 07:02:45;;;;;;;27.63;10.50;;;;;;;-141.50;100.00;63355.56;4842559;29;20881;-84
2024/02/26 07:05:51;;;;;;;23.05;10.13;;;;;;;-141.50;100.00;63355.56;4752733;29;20122;-83
2024/02/26 07:08:35;;;;;;;22.80;10.38;;;;;;;-141.50;100.00;63355.56;4756225;29;20058;-83
2024/02/26 07:11:23;;;;;;;23.08;10.45;;;;;;;-141.50;100.00;63355.56;4753452;29;20055;-82
2024/02/26 07:14:17;;;;;;;25.23;10.40;;;;;;;-141.50;100.00;63355.56;4771740;29;20071;-82
2024/02/26 07:17:47;;;;;;;25.00;10.10;;;;;;;-141.50;100.00;63355.56;4755562;29;20055;-84
2024/02/26 07:24:49;;;;;;;23.15;10.13;;;;;;;-141.50;100.00;63355.56;4805547;29;20122;-84
2024/02/26 07:28:42;;;;;;;25.42;10.48;;;;;;;-141.50;100.00;63355.56;4865250;29;21208;-82
2024/02/26 07:34:50;;;;;;;30.05;10.73;;;;;;;-141.50;100.00;63355.56;4928468;28;20520;-84
2024/02/26 07:37:48;;;;;;;33.00;11.65;;;;;;;-141.50;100.00;63355.56;4958423;28;20109;-82
2024/02/26 07:40:46;;;;;;;22.15;10.07;;;;;;;-141.50;100.00;63355.56;4896580;29;20080;-83
2024/02/26 07:44:19;;;;;;;23.90;10.60;;;;;;;-141.50;100.00;63355.56;4922481;28;20044;-84
2024/02/26 07:53:56;;;;;;;24.30;10.13;;;;;;;-141.50;100.00;63355.56;4930149;28;20053;-85
2024/02/26 07:57:05;;;;;;;19.15;9.27;;;;;;;-141.50;100.00;63355.56;4905908;28;20046;-83
2024/02/26 08:00:09;;;;;;;28.63;9.98;;;;;;;-141.50;100.00;63355.56;4907253;28;20143;-82
2024/02/26 08:03:39;;;;;;;;;;;;;;;;;;;;;
2024/02/26 08:06:57;;;;;;;21.90;9.80;;;;;;;-141.50;100.00;63355.56;4942875;28;20054;-83
2024/02/26 08:10:40;;;;;;;21.92;10.32;;;;;;;-141.50;100.00;63355.56;4873049;29;20051;-82
2024/02/26 08:14:18;;;;;;;21.92;9.63;;;;;;;-141.50;100.00;63355.56;4821184;29;20052;-83
2024/02/26 08:18:02;;;;;;;18.33;8.57;;;;;;;-141.50;100.00;63355.56;4869519;29;20107;-83
2024/02/26 08:20:48;;;;;;;24.27;10.00;;;;;;;-141.50;100.00;63355.56;4839960;29;20134;-82
2024/02/26 08:24:32;;;;;;;22.75;9.35;;;;;;;-141.50;100.00;63355.56;4832465;29;20060;-82
2024/02/26 08:27:33;;;;;;;19.40;9.00;;;;;;;-141.50;100.00;63355.56;4813150;29;20053;-83
2024/02/26 08:30:55;;;;;;;23.85;10.32;;;;;;;-141.50;100.00;63355.56;4898499;28;20602;-82
2024/02/26 08:34:22;;;;;;;25.15;10.07;;;;;;;-141.50;100.00;63355.56;4901997;28;20425;-83
2024/02/26 08:38:23;;;;;;;;;;;;;;;;;;;;;
2024/02/26 08:41:30;;;;;;;20.13;9.27;;;;;;;-141.50;100.00;63355.56;4832643;29;20055;-83
2024/02/26 08:44:38;;;;;;;18.15;8.35;;;;;;;-141.50;100.00;63355.56;4866822;29;20048;-83
2024/02/26 08:47:59;;;;;;;18.58;7.85;;;;;;;-141.50;100.00;63355.56;4875165;29;20055;-82
2024/02/26 08:51:25;;;;;;;18.58;7.88;;;;;;;-141.50;100.00;63355.56;4897171;28;20046;-82
2024/02/26 08:57:27;;;;;;;19.48;8.43;;;;;;;-141.50;100.00;63355.56;4821506;29;20422;-84
2024/02/26 09:01:23;;;;;;;19.58;8.38;;;;;;;-141.50;100.00;63355.56;4828680;29;20112;-83
2024/02/26 09:04:40;;;;;;;16.25;7.60;;;;;;;-141.50;100.00;63355.56;4829401;29;20054;-83
2024/02/26 09:11:24;;;;;;;18.85;8.52;;;;;;;-141.50;100.00;63355.56;4843821;29;20059;-83
2024/02/26 09:14:24;;;;;;;18.52;7.85;;;;;;;-141.50;100.00;63355.56;4869619;28;20135;-84
2024/02/26 09:17:08;;;;;;;18.05;7.65;;;;;;;-141.50;100.00;63355.56;4917309;28;20636;-82
2024/02/26 09:19:37;;;;;;;16.83;7.15;;;;;;;-141.50;100.00;63355.56;4969885;28;20049;-83
2024/02/26 09:22:34;;;;;;;15.18;7.35;;;;;;;-141.50;100.00;63355.56;4967505;28;20054;-83
2024/02/26 09:25:20;;;;;;;14.85;6.53;;;;;;;-141.50;100.00;63355.56;4928449;28;20655;-83
2024/02/26 09:28:34;;;;;;;15.98;6.50;;;;;;;-141.50;100.00;63355.56;4956599;28;20082;-83
2024/02/26 09:31:27;;;;;;;14.03;6.73;;;;;;;-141.50;100.00;63355.56;4914685;28;20526;-85
2024/02/26 09:34:46;;;;;;;15.60;6.75;;;;;;;-141.50;100.00;63355.56;4901754;29;20049;-83
2024/02/26 09:37:29;;;;;;;14.77;6.60;;;;;;;-141.50;100.00;63355.56;4893118;28;20154;-83
2024/02/26 09:40:37;;;;;;;15.10;6.63;;;;;;;-141.50;100.00;63355.56;4941858;28;20049;-83
2024/02/26 09:43:34;;;;;;;14.50;6.30;;;;;;;-141.50;100.00;63355.56;4926442;28;20436;-82
2024/02/26 09:46:08;;;;;;;10.93;5.68;;;;;;;-141.50;100.00;63355.56;4934110;28;20062;-81
2024/02/26 09:48:57;;;;;;;12.75;5.57;;;;;;;-141.50;100.00;63355.56;4969617;28;20049;-82
2024/02/26 09:51:48;;;;;;;12.38;5.85;;;;;;;-141.50;100.00;63355.56;4955977;28;20065;-82
2024/02/26 09:55:18;;;;;;;;;;;;;;;;;;;;;
2024/02/26 09:58:38;;;;;;;12.05;6.00;;;;;;;-141.50;100.00;63355.56;4958641;28;20045;-83
2024/02/26 10:01:50;;;;;;;13.02;5.60;;;;;;;-141.50;100.00;63355.56;4951065;28;20145;-83
2024/02/26 10:11:55;;;;;;;10.77;5.10;;;;;;;-141.50;100.00;63355.56;4936931;28;20050;-82
2024/02/26 10:14:49;;;;;;;11.93;5.13;;;;;;;-141.50;100.00;63355.56;4945737;28;20057;-84
2024/02/26 10:17:30;;;;;;;10.57;5.20;;;;;;;-141.50;100.00;63355.56;4962489;28;20771;-82
2024/02/26 10:24:47;;;;;;;12.30;4.68;;;;;;;-141.50;100.00;63355.56;4813140;28;20053;-83
2024/02/26 10:27:28;;;;;;;12.55;5.10;;;;;;;-141.50;100.00;63355.56;4904816;28;20062;-83
2024/02/26 10:30:42;;;;;;;7.75;4.07;;;;;;;-141.50;100.00;63355.56;4957465;28;20072;-83
2024/02/26 10:33:41;;;;;;;8.90;4.57;;;;;;;-141.50;100.00;63355.56;4960368;28;20052;-84
2024/02/26 10:36:14;;;;;;;10.10;4.72;;;;;;;-141.50;100.00;63355.56;4971392;28;20049;-82
2024/02/26 10:39:11;;;;;;;8.35;4.30;;;;;;;-141.50;100.00;63355.56;4947616;28;20062;-82
2024/02/26 10:42:38;;;;;;;8.90;4.22;;;;;;;-141.50;100.00;63355.56;4927999;28;20050;-82
2024/02/26 10:45:32;;;;;;;;;;;;;;;;;;;;;
2024/02/26 10:49:12;;;;;;;9.65;4.53;;;;;;;-141.50;100.00;63355.56;4943405;28;20042;-82
2024/02/26 10:52:44;;;;;;;7.47;4.00;;;;;;;-141.50;100.00;63355.56;4947730;28;20511;-82
2024/02/26 10:55:27;;;;;;;7.97;3.78;;;;;;;-141.50;100.00;63355.56;4951179;28;20059;-82
2024/02/26 10:58:02;;;;;;;7.97;3.95;;;;;;;-141.50;100.00;63355.56;4989202;28;20524;-82
2024/02/26 11:01:01;;;;;;;10.13;3.83;;;;;;;-141.50;100.00;63355.56;4962046;28;20069;-82
2024/02/26 11:04:02;;;;;;;9.73;4.18;;;;;;;-141.50;100.00;63355.56;4991678;28;20113;-83
2024/02/26 11:07:25;;;;;;;;;;;;;;;;;;;;;
2024/02/26 11:13:48;;;;;;;8.07;3.78;;;;;;;-141.50;100.00;63355.56;4905365;28;20066;-83
2024/02/26 11:25:19;;;;;;;7.32;3.60;;;;;;;-141.50;100.00;63355.56;4890400;29;20051;-82
2024/02/26 11:31:39;;;;;;;8.00;3.30;;;;;;;-141.50;100.00;63355.56;4909720;29;20139;-83
2024/02/26 11:35:02;;;;;;;6.20;3.47;;;;;;;-141.50;100.00;63355.56;4918236;28;20104;-83
2024/02/26 11:38:51;;;;;;;9.80;3.55;;;;;;;-141.50;100.00;63355.56;4815301;29;20056;-84
2024/02/26 11:41:36;;;;;;;7.32;3.20;;;;;;;-141.50;100.00;63355.56;4817225;29;20072;-82
2024/02/26 11:45:24;;;;;;;5.85;3.00;;;;;;;-141.50;100.00;63355.56;4805191;29;20148;-83
2024/02/26 11:48:32;;;;;;;7.07;3.10;;;;;;;-141.50;100.00;63355.56;4911304;28;20561;-82
2024/02/26 11:54:52;;;;;;;6.47;2.67;;;;;;;-141.50;100.00;63355.56;4964705;28;20054;-83
2024/02/26 11:58:12;;;;;;;6.32;2.70;;;;;;;-141.50;100.00;63355.56;4941489;28;20054;-83
2024/02/26 12:01:09;;;;;;;5.70;2.67;;;;;;;-141.50;100.00;63355.56;4915422;28;20058;-84
2024/02/26 12:03:53;;;;;;;8.93;3.15;;;;;;;-141.50;100.00;63355.56;4964862;28;20058;-82
2024/02/26 12:06:45;;;;;;;9.68;3.00;;;;;;;-141.50;100.00;63355.56;4956329;28;20082;-82
2024/02/26 12:09:57;;;;;;;5.93;3.00;;;;;;;-141.50;100.00;63355.56;4961486;28;20538;-82
2024/02/26 12:13:12;;;;;;;6.97;2.83;;;;;;;-141.50;100.00;63355.56;4908608;28;20046;-82
2024/02/26 12:16:31;;;;;;;6.32;2.50;;;;;;;-141.50;100.00;63355.56;4939868;28;20774;-82
2024/02/26 12:20:12;;;;;;;6.75;2.53;;;;;;;-141.50;100.00;63355.56;4883441;29;20047;-82
2024/02/26 12:23:09;;;;;;;6.70;3.38;;;;;;;-141.50;100.00;63355.56;4878806;28;20134;-82
2024/02/26 12:26:00;;;;;;;4.85;2.90;;;;;;;-141.50;100.00;63355.56;4962501;28;20089;-82
2024/02/26 12:29:44;;;;;;;5.00;3.00;;;;;;;-141.50;100.00;63355.56;4959033;28;20049;-82
2024/02/26 12:32:26;;;;;;;4.88;2.60;;;;;;;-141.50;100.00;63355.56;4957581;28;20058;-82
2024/02/26 12:39:18;;;;;;;7.75;2.60;;;;;;;-141.50;100.00;63355.56;4870241;28;20051;-82
2024/02/26 12:42:32;;;;;;;7.13;2.97;;;;;;;-141.50;100.00;63355.56;4948469;28;21103;-81
2024/02/26 12:45:20;;;;;;;7.40;2.70;;;;;;;-141.50;100.00;63355.56;4951406;28;20082;-82
2024/02/26 12:48:35;;;;;;;;;;;;;;;;;;;;;
2024/02/26 12:52:03;;;;;;;8.77;3.33;;;;;;;-141.50;100.00;63355.56;4960524;28;20050;-84
2024/02/26 12:55:12;;;;;;;;;;;;;;;;;;;;;
2024/02/26 12:58:47;;;;;;;5.45;2.45;;;;;;;-141.50;100.00;63355.56;4870168;29;20064;-81
2024/02/26 13:01:46;;;;;;;4.95;2.40;;;;;;;-141.50;100.00;63355.56;4874118;29;20139;-83
2024/02/26 13:05:09;;;;;;;5.90;2.70;;;;;;;-141.50;100.00;63355.56;4905585;28;20106;-82
2024/02/26 13:12:23;;;;;;;;;;;;;;;;;;;;;
2024/02/26 13:15:26;;;;;;;6.75;2.70;;;;;;;-141.50;100.00;63355.56;4894691;28;20713;-82
2024/02/26 13:22:11;;;;;;;7.57;2.88;;;;;;;-141.50;100.00;63355.56;4845166;29;20468;-83
2024/02/26 13:25:11;;;;;;;;;;;;;;;-141.50;100.00;63355.56;4881029;28;20078;-82
2024/02/26 13:28:16;;;;;;;7.13;3.20;;;;;;;-141.50;100.00;63355.56;4916766;28;20529;-84
2024/02/26 13:31:13;;;;;;;10.00;4.20;;;;;;;-141.50;100.00;63355.56;4905821;28;20034;-83
2024/02/26 13:34:07;;;;;;;;;;;;;;;-141.50;100.00;63355.56;4940297;28;20637;-82
2024/02/26 13:37:28;;;;;;;10.00;4.18;;;;;;;-141.50;100.00;63355.56;4900927;28;19930;-82
2024/02/26 13:40:34;;;;;;;7.32;3.78;;;;;;;-141.50;100.00;63355.56;4959036;28;20100;-83
2024/02/26 13:43:28;;;;;;;7.60;3.03;;;;;;;-141.50;100.00;63355.56;4917164;28;20441;-80